sensor_id;sensor_type;location;lat;lon;timestamp;P1;durP1;ratioP1;P2;durP2;ratioP2
68475;SDS011;55464;48.266;14.188;2024-01-15T00:02:02;36.53;;;14.50;;
68475;SDS011;55464;48.266;14.188;2024-01-15T00:04:28;43.28;;;15.35;;
68475;SDS011;55464;48.266;14.188;2024-01-15T00:06:54;42.53;;;15.38;;
68475;SDS011;55464;48.266;14.188;2024-01-15T00:09:19;37.13;;;15.27;;
68475;SDS011;55464;48.266;14.188;2024-01-15T00:11:44;38.30;;;15.27;;
68475;SDS011;55464;48.266;14.188;2024-01-15T00:14:11;39.42;;;14.48;;
68475;SDS011;55464;48.266;14.188;2024-01-15T00:16:39;35.42;;;14.63;;
68475;SDS011;55464;48.266;14.188;2024-01-15T00:19:05;37.20;;;15.57;;
68475;SDS011;55464;48.266;14.188;2024-01-15T00:21:31;42.47;;;15.02;;
68475;SDS011;55464;48.266;14.188;2024-01-15T00:23:56;34.95;;;15.25;;
68475;SDS011;55464;48.266;14.188;2024-01-15T00:26:22;40.20;;;14.55;;
68475;SDS011;55464;48.266;14.188;2024-01-15T00:28:48;40.15;;;15.38;;
68475;SDS011;55464;48.266;14.188;2024-01-15T00:31:15;38.03;;;16.17;;
68475;SDS011;55464;48.266;14.188;2024-01-15T00:33:42;39.33;;;15.02;;
68475;SDS011;55464;48.266;14.188;2024-01-15T00:36:07;36.15;;;14.30;;
68475;SDS011;55464;48.266;14.188;2024-01-15T00:38:33;41.53;;;14.77;;
68475;SDS011;55464;48.266;14.188;2024-01-15T00:40:58;36.15;;;14.13;;
68475;SDS011;55464;48.266;14.188;2024-01-15T00:43:24;37.78;;;14.43;;
68475;SDS011;55464;48.266;14.188;2024-01-15T00:45:49;41.40;;;15.55;;
68475;SDS011;55464;48.266;14.188;2024-01-15T00:48:14;40.78;;;15.38;;
68475;SDS011;55464;48.266;14.188;2024-01-15T00:50:40;33.55;;;14.45;;
68475;SDS011;55464;48.266;14.188;2024-01-15T00:53:05;39.20;;;15.23;;
68475;SDS011;55464;48.266;14.188;2024-01-15T00:55:31;43.20;;;15.80;;
68475;SDS011;55464;48.266;14.188;2024-01-15T00:57:57;37.88;;;14.65;;
68475;SDS011;55464;48.266;14.188;2024-01-15T01:00:22;33.25;;;14.02;;
68475;SDS011;55464;48.266;14.188;2024-01-15T01:02:47;31.90;;;13.13;;
68475;SDS011;55464;48.266;14.188;2024-01-15T01:05:13;30.20;;;11.77;;
68475;SDS011;55464;48.266;14.188;2024-01-15T01:07:39;30.55;;;13.32;;
68475;SDS011;55464;48.266;14.188;2024-01-15T01:10:04;27.30;;;12.27;;
68475;SDS011;55464;48.266;14.188;2024-01-15T01:12:30;30.83;;;12.55;;
68475;SDS011;55464;48.266;14.188;2024-01-15T01:14:55;24.73;;;10.73;;
68475;SDS011;55464;48.266;14.188;2024-01-15T01:17:21;29.30;;;11.75;;
68475;SDS011;55464;48.266;14.188;2024-01-15T01:19:47;28.42;;;11.32;;
68475;SDS011;55464;48.266;14.188;2024-01-15T01:22:12;33.75;;;12.23;;
68475;SDS011;55464;48.266;14.188;2024-01-15T01:24:38;36.78;;;14.32;;
68475;SDS011;55464;48.266;14.188;2024-01-15T01:27:03;35.67;;;13.88;;
68475;SDS011;55464;48.266;14.188;2024-01-15T01:29:29;37.05;;;14.40;;
68475;SDS011;55464;48.266;14.188;2024-01-15T01:31:54;37.50;;;13.52;;
68475;SDS011;55464;48.266;14.188;2024-01-15T01:34:21;37.70;;;15.10;;
68475;SDS011;55464;48.266;14.188;2024-01-15T01:36:47;37.15;;;14.48;;
68475;SDS011;55464;48.266;14.188;2024-01-15T01:39:13;41.47;;;16.65;;
68475;SDS011;55464;48.266;14.188;2024-01-15T01:41:38;42.67;;;14.90;;
68475;SDS011;55464;48.266;14.188;2024-01-15T01:44:05;40.15;;;16.27;;
68475;SDS011;55464;48.266;14.188;2024-01-15T01:46:30;43.05;;;15.25;;
68475;SDS011;55464;48.266;14.188;2024-01-15T01:48:56;42.17;;;16.20;;
68475;SDS011;55464;48.266;14.188;2024-01-15T01:51:23;39.58;;;15.15;;
68475;SDS011;55464;48.266;14.188;2024-01-15T01:53:50;38.17;;;15.25;;
68475;SDS011;55464;48.266;14.188;2024-01-15T01:56:16;33.65;;;14.75;;
68475;SDS011;55464;48.266;14.188;2024-01-15T01:58:43;45.60;;;15.82;;
68475;SDS011;55464;48.266;14.188;2024-01-15T02:01:09;39.67;;;15.18;;
68475;SDS011;55464;48.266;14.188;2024-01-15T02:03:37;41.67;;;16.25;;
68475;SDS011;55464;48.266;14.188;2024-01-15T02:06:03;37.20;;;14.38;;
68475;SDS011;55464;48.266;14.188;2024-01-15T02:08:29;39.47;;;15.20;;
68475;SDS011;55464;48.266;14.188;2024-01-15T02:10:55;37.90;;;14.13;;
68475;SDS011;55464;48.266;14.188;2024-01-15T02:13:20;48.13;;;16.80;;
68475;SDS011;55464;48.266;14.188;2024-01-15T02:15:49;43.22;;;15.93;;
68475;SDS011;55464;48.266;14.188;2024-01-15T02:18:14;32.45;;;14.00;;
68475;SDS011;55464;48.266;14.188;2024-01-15T02:20:40;37.67;;;14.98;;
68475;SDS011;55464;48.266;14.188;2024-01-15T02:23:09;41.10;;;14.85;;
68475;SDS011;55464;48.266;14.188;2024-01-15T02:25:42;41.20;;;15.25;;
68475;SDS011;55464;48.266;14.188;2024-01-15T02:28:15;40.80;;;15.02;;
68475;SDS011;55464;48.266;14.188;2024-01-15T02:30:42;41.03;;;15.02;;
68475;SDS011;55464;48.266;14.188;2024-01-15T02:33:09;43.85;;;15.27;;
68475;SDS011;55464;48.266;14.188;2024-01-15T02:35:35;44.75;;;16.02;;
68475;SDS011;55464;48.266;14.188;2024-01-15T02:38:01;36.83;;;15.60;;
68475;SDS011;55464;48.266;14.188;2024-01-15T02:40:27;43.38;;;16.13;;
68475;SDS011;55464;48.266;14.188;2024-01-15T02:42:53;37.88;;;14.50;;
68475;SDS011;55464;48.266;14.188;2024-01-15T02:45:19;39.80;;;14.90;;
68475;SDS011;55464;48.266;14.188;2024-01-15T02:47:45;42.88;;;15.38;;
68475;SDS011;55464;48.266;14.188;2024-01-15T02:50:10;48.90;;;15.27;;
68475;SDS011;55464;48.266;14.188;2024-01-15T02:52:35;38.97;;;13.77;;
68475;SDS011;55464;48.266;14.188;2024-01-15T02:55:01;39.53;;;14.40;;
68475;SDS011;55464;48.266;14.188;2024-01-15T02:57:26;39.58;;;15.85;;
68475;SDS011;55464;48.266;14.188;2024-01-15T02:59:52;37.80;;;14.40;;
68475;SDS011;55464;48.266;14.188;2024-01-15T03:02:17;41.47;;;15.18;;
68475;SDS011;55464;48.266;14.188;2024-01-15T03:04:43;38.67;;;15.00;;
68475;SDS011;55464;48.266;14.188;2024-01-15T03:07:09;38.65;;;14.20;;
68475;SDS011;55464;48.266;14.188;2024-01-15T03:09:35;37.60;;;14.50;;
68475;SDS011;55464;48.266;14.188;2024-01-15T03:12:00;35.60;;;14.73;;
68475;SDS011;55464;48.266;14.188;2024-01-15T03:14:26;43.33;;;15.77;;
68475;SDS011;55464;48.266;14.188;2024-01-15T03:16:52;30.88;;;13.55;;
68475;SDS011;55464;48.266;14.188;2024-01-15T03:19:18;37.03;;;15.07;;
68475;SDS011;55464;48.266;14.188;2024-01-15T03:21:43;34.63;;;14.52;;
68475;SDS011;55464;48.266;14.188;2024-01-15T03:24:09;30.25;;;13.52;;
68475;SDS011;55464;48.266;14.188;2024-01-15T03:26:34;34.95;;;13.80;;
68475;SDS011;55464;48.266;14.188;2024-01-15T03:29:00;38.30;;;16.15;;
68475;SDS011;55464;48.266;14.188;2024-01-15T03:31:25;42.08;;;15.05;;
68475;SDS011;55464;48.266;14.188;2024-01-15T03:33:51;39.00;;;15.13;;
68475;SDS011;55464;48.266;14.188;2024-01-15T03:36:16;40.72;;;15.60;;
68475;SDS011;55464;48.266;14.188;2024-01-15T03:38:42;39.50;;;14.85;;
68475;SDS011;55464;48.266;14.188;2024-01-15T03:41:07;35.83;;;14.30;;
68475;SDS011;55464;48.266;14.188;2024-01-15T03:43:33;40.85;;;15.02;;
68475;SDS011;55464;48.266;14.188;2024-01-15T03:45:58;42.30;;;15.18;;
68475;SDS011;55464;48.266;14.188;2024-01-15T03:48:24;37.05;;;14.95;;
68475;SDS011;55464;48.266;14.188;2024-01-15T03:50:49;36.08;;;14.02;;
68475;SDS011;55464;48.266;14.188;2024-01-15T03:53:15;31.35;;;14.05;;
68475;SDS011;55464;48.266;14.188;2024-01-15T03:55:41;29.35;;;12.32;;
68475;SDS011;55464;48.266;14.188;2024-01-15T03:58:07;35.58;;;13.30;;
68475;SDS011;55464;48.266;14.188;2024-01-15T04:00:33;33.47;;;13.32;;
68475;SDS011;55464;48.266;14.188;2024-01-15T04:02:59;32.53;;;13.68;;
68475;SDS011;55464;48.266;14.188;2024-01-15T04:05:25;31.58;;;13.27;;
68475;SDS011;55464;48.266;14.188;2024-01-15T04:07:51;27.80;;;12.02;;
68475;SDS011;55464;48.266;14.188;2024-01-15T04:10:16;30.10;;;12.25;;
68475;SDS011;55464;48.266;14.188;2024-01-15T04:12:42;39.70;;;14.77;;
68475;SDS011;55464;48.266;14.188;2024-01-15T04:15:08;28.88;;;12.25;;
68475;SDS011;55464;48.266;14.188;2024-01-15T04:17:33;29.10;;;11.38;;
68475;SDS011;55464;48.266;14.188;2024-01-15T04:19:59;32.92;;;11.88;;
68475;SDS011;55464;48.266;14.188;2024-01-15T04:22:25;31.35;;;11.82;;
68475;SDS011;55464;48.266;14.188;2024-01-15T04:24:50;33.42;;;13.57;;
68475;SDS011;55464;48.266;14.188;2024-01-15T04:27:16;42.47;;;18.88;;
68475;SDS011;55464;48.266;14.188;2024-01-15T04:29:41;40.55;;;20.08;;
68475;SDS011;55464;48.266;14.188;2024-01-15T04:32:07;36.40;;;16.73;;
68475;SDS011;55464;48.266;14.188;2024-01-15T04:34:32;34.15;;;13.90;;
68475;SDS011;55464;48.266;14.188;2024-01-15T04:36:58;26.95;;;12.70;;
68475;SDS011;55464;48.266;14.188;2024-01-15T04:39:23;26.02;;;11.77;;
68475;SDS011;55464;48.266;14.188;2024-01-15T04:41:49;31.02;;;13.30;;
68475;SDS011;55464;48.266;14.188;2024-01-15T04:44:14;28.50;;;12.18;;
68475;SDS011;55464;48.266;14.188;2024-01-15T04:46:39;30.75;;;11.95;;
68475;SDS011;55464;48.266;14.188;2024-01-15T04:49:05;29.38;;;12.18;;
68475;SDS011;55464;48.266;14.188;2024-01-15T04:51:30;27.02;;;12.02;;
68475;SDS011;55464;48.266;14.188;2024-01-15T04:53:56;33.40;;;13.77;;
68475;SDS011;55464;48.266;14.188;2024-01-15T04:56:21;28.67;;;12.07;;
68475;SDS011;55464;48.266;14.188;2024-01-15T04:58:46;23.77;;;11.23;;
68475;SDS011;55464;48.266;14.188;2024-01-15T05:01:12;29.25;;;11.32;;
68475;SDS011;55464;48.266;14.188;2024-01-15T05:03:37;28.98;;;11.63;;
68475;SDS011;55464;48.266;14.188;2024-01-15T05:06:02;26.80;;;11.18;;
68475;SDS011;55464;48.266;14.188;2024-01-15T05:08:28;25.92;;;11.88;;
68475;SDS011;55464;48.266;14.188;2024-01-15T05:10:53;31.20;;;12.98;;
68475;SDS011;55464;48.266;14.188;2024-01-15T05:13:19;28.08;;;11.98;;
68475;SDS011;55464;48.266;14.188;2024-01-15T05:15:44;28.90;;;12.68;;
68475;SDS011;55464;48.266;14.188;2024-01-15T05:18:10;29.83;;;12.75;;
68475;SDS011;55464;48.266;14.188;2024-01-15T05:20:35;32.35;;;13.25;;
68475;SDS011;55464;48.266;14.188;2024-01-15T05:23:01;23.02;;;10.45;;
68475;SDS011;55464;48.266;14.188;2024-01-15T05:25:26;26.75;;;11.00;;
68475;SDS011;55464;48.266;14.188;2024-01-15T05:27:51;26.77;;;11.45;;
68475;SDS011;55464;48.266;14.188;2024-01-15T05:30:17;30.73;;;12.60;;
68475;SDS011;55464;48.266;14.188;2024-01-15T05:32:42;23.65;;;11.43;;
68475;SDS011;55464;48.266;14.188;2024-01-15T05:35:08;28.70;;;12.88;;
68475;SDS011;55464;48.266;14.188;2024-01-15T05:37:33;35.17;;;13.25;;
68475;SDS011;55464;48.266;14.188;2024-01-15T05:39:58;31.48;;;12.25;;
68475;SDS011;55464;48.266;14.188;2024-01-15T05:42:24;30.83;;;11.93;;
68475;SDS011;55464;48.266;14.188;2024-01-15T05:44:49;27.20;;;11.70;;
68475;SDS011;55464;48.266;14.188;2024-01-15T05:47:15;28.95;;;12.10;;
68475;SDS011;55464;48.266;14.188;2024-01-15T05:49:40;30.60;;;13.13;;
68475;SDS011;55464;48.266;14.188;2024-01-15T05:52:06;25.67;;;11.48;;
68475;SDS011;55464;48.266;14.188;2024-01-15T05:54:31;30.67;;;11.90;;
68475;SDS011;55464;48.266;14.188;2024-01-15T05:56:57;28.17;;;11.63;;
68475;SDS011;55464;48.266;14.188;2024-01-15T05:59:22;26.25;;;12.23;;
68475;SDS011;55464;48.266;14.188;2024-01-15T06:01:48;25.35;;;11.30;;
68475;SDS011;55464;48.266;14.188;2024-01-15T06:04:13;22.30;;;10.90;;
68475;SDS011;55464;48.266;14.188;2024-01-15T06:06:39;28.02;;;12.27;;
68475;SDS011;55464;48.266;14.188;2024-01-15T06:09:04;25.67;;;11.73;;
68475;SDS011;55464;48.266;14.188;2024-01-15T06:11:31;24.10;;;10.93;;
68475;SDS011;55464;48.266;14.188;2024-01-15T06:13:57;29.70;;;11.80;;
68475;SDS011;55464;48.266;14.188;2024-01-15T06:16:23;28.23;;;12.63;;
68475;SDS011;55464;48.266;14.188;2024-01-15T06:18:49;34.15;;;12.13;;
68475;SDS011;55464;48.266;14.188;2024-01-15T06:21:14;34.13;;;13.13;;
68475;SDS011;55464;48.266;14.188;2024-01-15T06:23:40;26.80;;;11.02;;
68475;SDS011;55464;48.266;14.188;2024-01-15T06:26:06;29.55;;;12.52;;
68475;SDS011;55464;48.266;14.188;2024-01-15T06:28:31;28.98;;;11.63;;
68475;SDS011;55464;48.266;14.188;2024-01-15T06:30:57;25.08;;;11.32;;
68475;SDS011;55464;48.266;14.188;2024-01-15T06:33:23;26.38;;;11.60;;
68475;SDS011;55464;48.266;14.188;2024-01-15T06:35:48;30.25;;;12.48;;
68475;SDS011;55464;48.266;14.188;2024-01-15T06:38:14;29.27;;;12.48;;
68475;SDS011;55464;48.266;14.188;2024-01-15T06:40:40;32.10;;;12.27;;
68475;SDS011;55464;48.266;14.188;2024-01-15T06:43:10;30.73;;;12.98;;
68475;SDS011;55464;48.266;14.188;2024-01-15T06:45:42;28.92;;;12.38;;
68475;SDS011;55464;48.266;14.188;2024-01-15T06:48:08;26.55;;;11.85;;
68475;SDS011;55464;48.266;14.188;2024-01-15T06:50:34;27.45;;;12.00;;
68475;SDS011;55464;48.266;14.188;2024-01-15T06:52:59;30.17;;;12.23;;
68475;SDS011;55464;48.266;14.188;2024-01-15T06:55:25;27.02;;;11.40;;
68475;SDS011;55464;48.266;14.188;2024-01-15T06:57:50;26.38;;;11.25;;
68475;SDS011;55464;48.266;14.188;2024-01-15T07:00:19;31.13;;;12.05;;
68475;SDS011;55464;48.266;14.188;2024-01-15T07:02:47;28.42;;;12.35;;
68475;SDS011;55464;48.266;14.188;2024-01-15T07:05:13;25.85;;;11.95;;
68475;SDS011;55464;48.266;14.188;2024-01-15T07:07:38;28.10;;;12.05;;
68475;SDS011;55464;48.266;14.188;2024-01-15T07:10:04;24.00;;;10.30;;
68475;SDS011;55464;48.266;14.188;2024-01-15T07:12:31;28.95;;;12.50;;
68475;SDS011;55464;48.266;14.188;2024-01-15T07:14:56;35.28;;;15.20;;
68475;SDS011;55464;48.266;14.188;2024-01-15T07:17:22;29.25;;;12.35;;
68475;SDS011;55464;48.266;14.188;2024-01-15T07:19:47;23.85;;;11.13;;
68475;SDS011;55464;48.266;14.188;2024-01-15T07:22:13;29.67;;;12.60;;
68475;SDS011;55464;48.266;14.188;2024-01-15T07:24:38;25.58;;;11.52;;
68475;SDS011;55464;48.266;14.188;2024-01-15T07:27:03;24.17;;;11.70;;
68475;SDS011;55464;48.266;14.188;2024-01-15T07:29:29;24.30;;;10.93;;
68475;SDS011;55464;48.266;14.188;2024-01-15T07:31:56;18.98;;;10.48;;
68475;SDS011;55464;48.266;14.188;2024-01-15T07:34:21;27.30;;;11.02;;
68475;SDS011;55464;48.266;14.188;2024-01-15T07:36:47;22.63;;;9.57;;
68475;SDS011;55464;48.266;14.188;2024-01-15T07:39:12;19.17;;;9.98;;
68475;SDS011;55464;48.266;14.188;2024-01-15T07:41:38;23.75;;;10.38;;
68475;SDS011;55464;48.266;14.188;2024-01-15T07:44:04;25.80;;;9.13;;
68475;SDS011;55464;48.266;14.188;2024-01-15T07:46:30;21.95;;;9.60;;
68475;SDS011;55464;48.266;14.188;2024-01-15T07:48:55;20.05;;;9.50;;
68475;SDS011;55464;48.266;14.188;2024-01-15T07:51:22;19.83;;;9.30;;
68475;SDS011;55464;48.266;14.188;2024-01-15T07:53:52;22.40;;;10.27;;
68475;SDS011;55464;48.266;14.188;2024-01-15T07:56:18;25.08;;;10.82;;
68475;SDS011;55464;48.266;14.188;2024-01-15T07:58:43;20.23;;;9.50;;
68475;SDS011;55464;48.266;14.188;2024-01-15T08:01:09;20.30;;;8.85;;
68475;SDS011;55464;48.266;14.188;2024-01-15T08:03:34;22.05;;;9.70;;
68475;SDS011;55464;48.266;14.188;2024-01-15T08:06:00;17.85;;;9.20;;
68475;SDS011;55464;48.266;14.188;2024-01-15T08:08:25;20.17;;;9.18;;
68475;SDS011;55464;48.266;14.188;2024-01-15T08:10:54;25.02;;;10.02;;
68475;SDS011;55464;48.266;14.188;2024-01-15T08:13:20;19.05;;;8.93;;
68475;SDS011;55464;48.266;14.188;2024-01-15T08:15:46;20.98;;;9.77;;
68475;SDS011;55464;48.266;14.188;2024-01-15T08:18:11;20.77;;;9.10;;
68475;SDS011;55464;48.266;14.188;2024-01-15T08:20:37;20.80;;;9.23;;
68475;SDS011;55464;48.266;14.188;2024-01-15T08:23:03;23.08;;;10.27;;
68475;SDS011;55464;48.266;14.188;2024-01-15T08:25:29;16.83;;;8.73;;
68475;SDS011;55464;48.266;14.188;2024-01-15T08:27:55;18.33;;;8.48;;
68475;SDS011;55464;48.266;14.188;2024-01-15T08:30:21;20.65;;;8.88;;
68475;SDS011;55464;48.266;14.188;2024-01-15T08:32:49;19.10;;;9.40;;
68475;SDS011;55464;48.266;14.188;2024-01-15T08:35:15;20.05;;;9.38;;
68475;SDS011;55464;48.266;14.188;2024-01-15T08:37:40;17.65;;;9.05;;
68475;SDS011;55464;48.266;14.188;2024-01-15T08:40:06;20.33;;;9.23;;
68475;SDS011;55464;48.266;14.188;2024-01-15T08:42:32;21.85;;;10.52;;
68475;SDS011;55464;48.266;14.188;2024-01-15T08:44:57;19.08;;;10.30;;
68475;SDS011;55464;48.266;14.188;2024-01-15T08:47:22;22.55;;;9.50;;
68475;SDS011;55464;48.266;14.188;2024-01-15T08:49:48;20.52;;;9.02;;
68475;SDS011;55464;48.266;14.188;2024-01-15T08:52:13;21.67;;;8.52;;
68475;SDS011;55464;48.266;14.188;2024-01-15T08:54:39;19.50;;;9.35;;
68475;SDS011;55464;48.266;14.188;2024-01-15T08:57:04;18.80;;;9.85;;
68475;SDS011;55464;48.266;14.188;2024-01-15T08:59:29;18.88;;;8.75;;
68475;SDS011;55464;48.266;14.188;2024-01-15T09:01:55;24.27;;;9.65;;
68475;SDS011;55464;48.266;14.188;2024-01-15T09:04:23;16.35;;;8.48;;
68475;SDS011;55464;48.266;14.188;2024-01-15T09:06:49;21.15;;;8.65;;
68475;SDS011;55464;48.266;14.188;2024-01-15T09:09:14;19.52;;;8.32;;
68475;SDS011;55464;48.266;14.188;2024-01-15T09:11:40;16.27;;;8.50;;
68475;SDS011;55464;48.266;14.188;2024-01-15T09:14:06;18.35;;;8.40;;
68475;SDS011;55464;48.266;14.188;2024-01-15T09:16:33;17.73;;;8.68;;
68475;SDS011;55464;48.266;14.188;2024-01-15T09:18:58;16.20;;;8.07;;
68475;SDS011;55464;48.266;14.188;2024-01-15T09:21:23;17.75;;;8.10;;
68475;SDS011;55464;48.266;14.188;2024-01-15T09:23:52;15.60;;;7.78;;
68475;SDS011;55464;48.266;14.188;2024-01-15T09:26:17;18.33;;;7.32;;
68475;SDS011;55464;48.266;14.188;2024-01-15T09:28:43;17.90;;;7.60;;
68475;SDS011;55464;48.266;14.188;2024-01-15T09:31:08;17.98;;;7.85;;
68475;SDS011;55464;48.266;14.188;2024-01-15T09:33:33;15.38;;;7.38;;
68475;SDS011;55464;48.266;14.188;2024-01-15T09:36:02;17.08;;;8.07;;
68475;SDS011;55464;48.266;14.188;2024-01-15T09:38:31;19.42;;;7.55;;
68475;SDS011;55464;48.266;14.188;2024-01-15T09:40:57;13.75;;;7.18;;
68475;SDS011;55464;48.266;14.188;2024-01-15T09:43:23;13.98;;;6.35;;
68475;SDS011;55464;48.266;14.188;2024-01-15T09:45:49;13.77;;;6.88;;
68475;SDS011;55464;48.266;14.188;2024-01-15T09:48:15;13.93;;;7.32;;
68475;SDS011;55464;48.266;14.188;2024-01-15T09:50:42;15.20;;;7.28;;
68475;SDS011;55464;48.266;14.188;2024-01-15T09:53:08;15.70;;;7.88;;
68475;SDS011;55464;48.266;14.188;2024-01-15T09:55:35;17.85;;;7.43;;
68475;SDS011;55464;48.266;14.188;2024-01-15T09:58:03;13.48;;;7.15;;
68475;SDS011;55464;48.266;14.188;2024-01-15T10:00:28;15.05;;;7.47;;
68475;SDS011;55464;48.266;14.188;2024-01-15T10:02:56;18.15;;;8.10;;
68475;SDS011;55464;48.266;14.188;2024-01-15T10:05:22;17.85;;;7.47;;
68475;SDS011;55464;48.266;14.188;2024-01-15T10:07:47;14.20;;;7.63;;
68475;SDS011;55464;48.266;14.188;2024-01-15T10:10:16;11.50;;;6.47;;
68475;SDS011;55464;48.266;14.188;2024-01-15T10:12:42;17.33;;;7.82;;
68475;SDS011;55464;48.266;14.188;2024-01-15T10:15:10;15.88;;;6.70;;
68475;SDS011;55464;48.266;14.188;2024-01-15T10:17:37;15.93;;;7.28;;
68475;SDS011;55464;48.266;14.188;2024-01-15T10:20:07;14.15;;;6.70;;
68475;SDS011;55464;48.266;14.188;2024-01-15T10:22:39;10.27;;;6.57;;
68475;SDS011;55464;48.266;14.188;2024-01-15T10:25:14;11.68;;;5.53;;
68475;SDS011;55464;48.266;14.188;2024-01-15T10:27:40;9.55;;;5.55;;
68475;SDS011;55464;48.266;14.188;2024-01-15T10:30:07;8.60;;;5.00;;
68475;SDS011;55464;48.266;14.188;2024-01-15T10:32:33;10.15;;;4.82;;
68475;SDS011;55464;48.266;14.188;2024-01-15T10:34:59;8.43;;;4.65;;
68475;SDS011;55464;48.266;14.188;2024-01-15T10:37:24;9.13;;;4.85;;
68475;SDS011;55464;48.266;14.188;2024-01-15T10:39:50;9.60;;;5.05;;
68475;SDS011;55464;48.266;14.188;2024-01-15T10:42:16;11.88;;;4.47;;
68475;SDS011;55464;48.266;14.188;2024-01-15T10:44:43;11.05;;;4.72;;
68475;SDS011;55464;48.266;14.188;2024-01-15T10:47:09;7.32;;;4.90;;
68475;SDS011;55464;48.266;14.188;2024-01-15T10:49:35;6.15;;;3.92;;
68475;SDS011;55464;48.266;14.188;2024-01-15T10:52:01;7.40;;;3.65;;
68475;SDS011;55464;48.266;14.188;2024-01-15T10:54:27;5.50;;;3.13;;
68475;SDS011;55464;48.266;14.188;2024-01-15T10:56:54;4.55;;;3.25;;
68475;SDS011;55464;48.266;14.188;2024-01-15T10:59:21;6.65;;;4.10;;
68475;SDS011;55464;48.266;14.188;2024-01-15T11:01:47;5.07;;;3.33;;
68475;SDS011;55464;48.266;14.188;2024-01-15T11:04:14;5.05;;;3.30;;
68475;SDS011;55464;48.266;14.188;2024-01-15T11:06:45;6.80;;;3.35;;
68475;SDS011;55464;48.266;14.188;2024-01-15T11:09:13;5.97;;;3.28;;
68475;SDS011;55464;48.266;14.188;2024-01-15T11:11:41;4.55;;;2.85;;
68475;SDS011;55464;48.266;14.188;2024-01-15T11:14:08;6.20;;;3.70;;
68475;SDS011;55464;48.266;14.188;2024-01-15T11:16:53;6.43;;;3.75;;
68475;SDS011;55464;48.266;14.188;2024-01-15T11:19:21;6.28;;;3.30;;
68475;SDS011;55464;48.266;14.188;2024-01-15T11:21:46;6.25;;;3.05;;
68475;SDS011;55464;48.266;14.188;2024-01-15T11:24:12;5.53;;;2.90;;
68475;SDS011;55464;48.266;14.188;2024-01-15T11:27:01;6.72;;;3.17;;
68475;SDS011;55464;48.266;14.188;2024-01-15T11:31:56;8.82;;;3.40;;
68475;SDS011;55464;48.266;14.188;2024-01-15T11:37:15;5.40;;;3.28;;
68475;SDS011;55464;48.266;14.188;2024-01-15T11:39:43;5.03;;;3.03;;
68475;SDS011;55464;48.266;14.188;2024-01-15T11:42:09;6.45;;;3.38;;
68475;SDS011;55464;48.266;14.188;2024-01-15T11:47:05;5.50;;;3.10;;
68475;SDS011;55464;48.266;14.188;2024-01-15T11:52:29;8.27;;;3.00;;
68475;SDS011;55464;48.266;14.188;2024-01-15T11:55:11;5.30;;;3.13;;
68475;SDS011;55464;48.266;14.188;2024-01-15T12:00:05;4.95;;;3.10;;
68475;SDS011;55464;48.266;14.188;2024-01-15T12:02:31;7.15;;;3.58;;
68475;SDS011;55464;48.266;14.188;2024-01-15T12:04:57;6.13;;;3.70;;
68475;SDS011;55464;48.266;14.188;2024-01-15T12:07:23;7.15;;;3.60;;
68475;SDS011;55464;48.266;14.188;2024-01-15T12:09:48;6.03;;;3.20;;
68475;SDS011;55464;48.266;14.188;2024-01-15T12:12:20;5.45;;;3.42;;
68475;SDS011;55464;48.266;14.188;2024-01-15T12:14:54;6.82;;;3.60;;
68475;SDS011;55464;48.266;14.188;2024-01-15T12:17:19;6.45;;;3.15;;
68475;SDS011;55464;48.266;14.188;2024-01-15T12:19:45;7.35;;;3.95;;
68475;SDS011;55464;48.266;14.188;2024-01-15T12:22:11;5.53;;;3.33;;
68475;SDS011;55464;48.266;14.188;2024-01-15T12:24:36;4.88;;;3.30;;
68475;SDS011;55464;48.266;14.188;2024-01-15T12:27:02;6.32;;;3.40;;
68475;SDS011;55464;48.266;14.188;2024-01-15T12:29:27;4.38;;;2.90;;
68475;SDS011;55464;48.266;14.188;2024-01-15T12:31:53;5.68;;;3.20;;
68475;SDS011;55464;48.266;14.188;2024-01-15T12:34:18;6.43;;;3.22;;
68475;SDS011;55464;48.266;14.188;2024-01-15T12:36:46;6.32;;;3.20;;
68475;SDS011;55464;48.266;14.188;2024-01-15T12:39:12;5.10;;;2.83;;
68475;SDS011;55464;48.266;14.188;2024-01-15T12:41:38;7.03;;;3.83;;
68475;SDS011;55464;48.266;14.188;2024-01-15T12:44:04;4.78;;;3.13;;
68475;SDS011;55464;48.266;14.188;2024-01-15T12:46:29;7.10;;;3.22;;
68475;SDS011;55464;48.266;14.188;2024-01-15T12:48:56;4.50;;;3.38;;
68475;SDS011;55464;48.266;14.188;2024-01-15T12:51:25;7.22;;;3.40;;
68475;SDS011;55464;48.266;14.188;2024-01-15T12:56:17;5.28;;;3.28;;
68475;SDS011;55464;48.266;14.188;2024-01-15T12:58:42;4.97;;;3.00;;
68475;SDS011;55464;48.266;14.188;2024-01-15T13:01:08;4.93;;;2.85;;
68475;SDS011;55464;48.266;14.188;2024-01-15T13:03:33;5.00;;;3.22;;
68475;SDS011;55464;48.266;14.188;2024-01-15T13:05:59;5.45;;;3.08;;
68475;SDS011;55464;48.266;14.188;2024-01-15T13:08:24;5.00;;;2.78;;
68475;SDS011;55464;48.266;14.188;2024-01-15T13:10:52;5.28;;;2.92;;
68475;SDS011;55464;48.266;14.188;2024-01-15T13:13:21;5.83;;;2.80;;
68475;SDS011;55464;48.266;14.188;2024-01-15T13:15:46;5.38;;;3.00;;
68475;SDS011;55464;48.266;14.188;2024-01-15T13:18:12;4.45;;;2.67;;
68475;SDS011;55464;48.266;14.188;2024-01-15T13:20:40;4.22;;;2.53;;
68475;SDS011;55464;48.266;14.188;2024-01-15T13:23:06;4.35;;;3.28;;
68475;SDS011;55464;48.266;14.188;2024-01-15T13:25:31;4.95;;;3.33;;
68475;SDS011;55464;48.266;14.188;2024-01-15T13:28:00;3.97;;;2.75;;
68475;SDS011;55464;48.266;14.188;2024-01-15T13:30:27;3.95;;;2.42;;
68475;SDS011;55464;48.266;14.188;2024-01-15T13:32:53;5.22;;;3.00;;
68475;SDS011;55464;48.266;14.188;2024-01-15T13:35:19;3.75;;;2.30;;
68475;SDS011;55464;48.266;14.188;2024-01-15T13:37:44;5.53;;;2.85;;
68475;SDS011;55464;48.266;14.188;2024-01-15T13:40:10;5.80;;;2.65;;
68475;SDS011;55464;48.266;14.188;2024-01-15T13:42:41;4.75;;;2.40;;
68475;SDS011;55464;48.266;14.188;2024-01-15T13:45:07;4.90;;;2.10;;
68475;SDS011;55464;48.266;14.188;2024-01-15T13:47:36;2.83;;;2.30;;
68475;SDS011;55464;48.266;14.188;2024-01-15T13:50:02;3.35;;;2.08;;
68475;SDS011;55464;48.266;14.188;2024-01-15T13:52:28;3.58;;;2.72;;
68475;SDS011;55464;48.266;14.188;2024-01-15T13:54:54;3.33;;;2.05;;
68475;SDS011;55464;48.266;14.188;2024-01-15T13:57:19;4.75;;;2.83;;
68475;SDS011;55464;48.266;14.188;2024-01-15T13:59:45;3.63;;;2.22;;
68475;SDS011;55464;48.266;14.188;2024-01-15T14:02:11;2.75;;;2.00;;
68475;SDS011;55464;48.266;14.188;2024-01-15T14:04:37;4.43;;;2.15;;
68475;SDS011;55464;48.266;14.188;2024-01-15T14:07:03;5.85;;;2.15;;
68475;SDS011;55464;48.266;14.188;2024-01-15T14:09:29;2.78;;;1.63;;
68475;SDS011;55464;48.266;14.188;2024-01-15T14:11:56;3.13;;;1.95;;
68475;SDS011;55464;48.266;14.188;2024-01-15T14:14:22;4.93;;;2.30;;
68475;SDS011;55464;48.266;14.188;2024-01-15T14:16:49;2.85;;;2.15;;
68475;SDS011;55464;48.266;14.188;2024-01-15T14:19:15;2.67;;;1.95;;
68475;SDS011;55464;48.266;14.188;2024-01-15T14:21:40;2.60;;;1.90;;
68475;SDS011;55464;48.266;14.188;2024-01-15T14:24:06;2.88;;;1.88;;
68475;SDS011;55464;48.266;14.188;2024-01-15T14:26:31;2.53;;;2.10;;
68475;SDS011;55464;48.266;14.188;2024-01-15T14:28:57;6.60;;;2.05;;